DLH145N EDDS-LIEE
Flight info
| Callsign | DLH145N |
|---|---|
| Flight time | 2h 6m |
| Altitude | 35000 |
| Route | ROTWE5B ROTWE Y126 TUBLO N850 NATOR DCT TRA DCT RIPUS DCT GERSA DCT SOSON DCT ODINA DCT EKPAL DCT TINKU DCT MAREL/N0404F190 L12 TINTO Q710 GITRI Z924 ADRUX Q125 KOVAS |
| Aircraft | A320/M-SDE3FGHIRWY/LB1 |
Departure
| Time | 2026-05-05 14:09 |
|---|---|
| Airport | Stuttgart Airport (EDDS) |
Arrival
| Time | 2026-05-05 16:16 |
|---|---|
| Airport | Cagliari Elmas Airport (LIEE) |
| Time | Latitude | Longitude | Altitude | Speed | Heading |
|---|---|---|---|---|---|
| 2026-05-05 13:19 | 48.68910 | 9.19514 | 1291 ft | 0 kts | 344° |
| 2026-05-05 13:55 | 48.68896 | 9.19520 | 1291 ft | 4 kts | 346° |
| 2026-05-05 13:55 | 48.68870 | 9.19528 | 1290 ft | 4 kts | 356° |
| 2026-05-05 13:55 | 48.68844 | 9.19525 | 1289 ft | 4 kts | 26° |
| 2026-05-05 13:56 | 48.68831 | 9.19508 | 1289 ft | 0 kts | 74° |
| 2026-05-05 13:58 | 48.68832 | 9.19510 | 1289 ft | 1 kts | 74° |
| 2026-05-05 13:58 | 48.68834 | 9.19525 | 1289 ft | 2 kts | 75° |
| 2026-05-05 13:58 | 48.68841 | 9.19566 | 1285 ft | 6 kts | 75° |
| 2026-05-05 13:58 | 48.68863 | 9.19682 | 1289 ft | 17 kts | 73° |
| 2026-05-05 13:59 | 48.68829 | 9.19914 | 1288 ft | 11 kts | 108° |
| 2026-05-05 13:59 | 48.68849 | 9.20081 | 1287 ft | 21 kts | 75° |
| 2026-05-05 14:00 | 48.68922 | 9.20477 | 1289 ft | 16 kts | 74° |
| 2026-05-05 14:00 | 48.68942 | 9.20579 | 1286 ft | 14 kts | 74° |
| 2026-05-05 14:00 | 48.68986 | 9.20811 | 1285 ft | 24 kts | 74° |
| 2026-05-05 14:00 | 48.69043 | 9.21110 | 1285 ft | 34 kts | 73° |
| 2026-05-05 14:01 | 48.69117 | 9.21499 | 1285 ft | 42 kts | 74° |
| 2026-05-05 14:01 | 48.69199 | 9.21927 | 1288 ft | 41 kts | 73° |
| 2026-05-05 14:01 | 48.69277 | 9.22337 | 1285 ft | 40 kts | 74° |
| 2026-05-05 14:01 | 48.69351 | 9.22732 | 1289 ft | 38 kts | 74° |
| 2026-05-05 14:02 | 48.69424 | 9.23112 | 1289 ft | 37 kts | 73° |
| 2026-05-05 14:02 | 48.69494 | 9.23480 | 1286 ft | 36 kts | 74° |
| 2026-05-05 14:02 | 48.69560 | 9.23838 | 1285 ft | 35 kts | 74° |
| 2026-05-05 14:02 | 48.69607 | 9.24145 | 1285 ft | 22 kts | 90° |
| 2026-05-05 14:03 | 48.69535 | 9.24298 | 1287 ft | 16 kts | 154° |
| 2026-05-05 14:03 | 48.69493 | 9.24319 | 1285 ft | 0 kts | 165° |
| 2026-05-05 14:08 | 48.69460 | 9.24327 | 1285 ft | 11 kts | 180° |
| 2026-05-05 14:08 | 48.69390 | 9.24280 | 1288 ft | 12 kts | 226° |
| 2026-05-05 14:08 | 48.69360 | 9.24160 | 1289 ft | 13 kts | 255° |
| 2026-05-05 14:09 | 48.69317 | 9.23926 | 1290 ft | 51 kts | 253° |
| 2026-05-05 14:09 | 48.69155 | 9.23068 | 1287 ft | 115 kts | 254° |
| 2026-05-05 14:09 | 48.68891 | 9.21643 | 1315 ft | 162 kts | 255° |
| 2026-05-05 14:09 | 48.68595 | 9.19992 | 2033 ft | 160 kts | 254° |
| 2026-05-05 14:10 | 48.68289 | 9.18401 | 2823 ft | 155 kts | 252° |
| 2026-05-05 14:10 | 48.67971 | 9.16845 | 3328 ft | 161 kts | 252° |
| 2026-05-05 14:10 | 48.67637 | 9.15108 | 3569 ft | 183 kts | 253° |
| 2026-05-05 14:10 | 48.67277 | 9.13155 | 3841 ft | 208 kts | 253° |
| 2026-05-05 14:11 | 48.66856 | 9.10886 | 4219 ft | 233 kts | 253° |
| 2026-05-05 14:11 | 48.66390 | 9.08416 | 4685 ft | 254 kts | 252° |
| 2026-05-05 14:11 | 48.65891 | 9.05789 | 4858 ft | 261 kts | 252° |
| 2026-05-05 14:11 | 48.65387 | 9.03143 | 4892 ft | 263 kts | 252° |
| 2026-05-05 14:12 | 48.64871 | 9.00459 | 5680 ft | 265 kts | 251° |
| 2026-05-05 14:12 | 48.64354 | 8.97795 | 6665 ft | 265 kts | 251° |
| 2026-05-05 14:12 | 48.63831 | 8.95117 | 7539 ft | 267 kts | 251° |
| 2026-05-05 14:12 | 48.63304 | 8.92417 | 8407 ft | 269 kts | 251° |
| 2026-05-05 14:13 | 48.62767 | 8.89692 | 9263 ft | 272 kts | 251° |
| 2026-05-05 14:13 | 48.62215 | 8.86933 | 10029 ft | 278 kts | 249° |
| 2026-05-05 14:13 | 48.61357 | 8.84216 | 10289 ft | 298 kts | 235° |
| 2026-05-05 14:13 | 48.59997 | 8.81701 | 10506 ft | 320 kts | 226° |
| 2026-05-05 14:14 | 48.58429 | 8.79149 | 10660 ft | 342 kts | 226° |
| 2026-05-05 14:14 | 48.56782 | 8.76462 | 11152 ft | 351 kts | 226° |
| 2026-05-05 14:14 | 48.55121 | 8.73733 | 11824 ft | 356 kts | 227° |
| 2026-05-05 14:14 | 48.53444 | 8.70962 | 12547 ft | 360 kts | 227° |
| 2026-05-05 14:15 | 48.51929 | 8.67934 | 13188 ft | 364 kts | 238° |
| 2026-05-05 14:15 | 48.50822 | 8.64476 | 13822 ft | 370 kts | 249° |
| 2026-05-05 14:15 | 48.50098 | 8.60728 | 14402 ft | 374 kts | 253° |
| 2026-05-05 14:15 | 48.49411 | 8.56930 | 14955 ft | 378 kts | 253° |
| 2026-05-05 14:16 | 48.48710 | 8.53093 | 15498 ft | 381 kts | 252° |
| 2026-05-05 14:16 | 48.47716 | 8.49385 | 16000 ft | 384 kts | 240° |
| 2026-05-05 14:16 | 48.46226 | 8.46042 | 16522 ft | 386 kts | 229° |
| 2026-05-05 14:16 | 48.44308 | 8.43201 | 17041 ft | 389 kts | 218° |
| 2026-05-05 14:17 | 48.42061 | 8.41000 | 17562 ft | 393 kts | 207° |
| 2026-05-05 14:17 | 48.39536 | 8.39403 | 18065 ft | 396 kts | 198° |
| 2026-05-05 14:17 | 48.36847 | 8.38414 | 18520 ft | 399 kts | 192° |
| 2026-05-05 14:17 | 48.34125 | 8.37551 | 19001 ft | 402 kts | 192° |
| 2026-05-05 14:18 | 48.31381 | 8.36678 | 19491 ft | 404 kts | 192° |
| 2026-05-05 14:18 | 48.28625 | 8.35802 | 19973 ft | 406 kts | 192° |
| 2026-05-05 14:18 | 48.25853 | 8.34924 | 20445 ft | 409 kts | 192° |
| 2026-05-05 14:18 | 48.23062 | 8.34040 | 20878 ft | 411 kts | 192° |
| 2026-05-05 14:19 | 48.20258 | 8.33154 | 21330 ft | 413 kts | 192° |
| 2026-05-05 14:19 | 48.17397 | 8.32583 | 21751 ft | 417 kts | 183° |
| 2026-05-05 14:19 | 48.14495 | 8.32739 | 22172 ft | 420 kts | 173° |
| 2026-05-05 14:19 | 48.11598 | 8.33426 | 22587 ft | 422 kts | 171° |
| 2026-05-05 14:20 | 48.08698 | 8.34136 | 22988 ft | 424 kts | 172° |
| 2026-05-05 14:20 | 48.05769 | 8.34850 | 23380 ft | 427 kts | 172° |
| 2026-05-05 14:20 | 48.02832 | 8.35564 | 23715 ft | 429 kts | 172° |
| 2026-05-05 14:20 | 47.99876 | 8.36281 | 24105 ft | 431 kts | 172° |
| 2026-05-05 14:21 | 47.96906 | 8.36996 | 24491 ft | 433 kts | 172° |
| 2026-05-05 14:21 | 47.93928 | 8.37711 | 24859 ft | 434 kts | 172° |
| 2026-05-05 14:21 | 47.91946 | 8.38187 | 25095 ft | 435 kts | 172° |
| 2026-05-05 14:21 | 47.87982 | 8.39137 | 25555 ft | 436 kts | 172° |
| 2026-05-05 14:22 | 47.84981 | 8.39855 | 25874 ft | 438 kts | 172° |
| 2026-05-05 14:22 | 47.81974 | 8.40571 | 26185 ft | 439 kts | 172° |
| 2026-05-05 14:22 | 47.79932 | 8.41059 | 26399 ft | 440 kts | 172° |
| 2026-05-05 14:22 | 47.75931 | 8.42020 | 26800 ft | 441 kts | 171° |
| 2026-05-05 14:23 | 47.73875 | 8.42513 | 27011 ft | 442 kts | 171° |
| 2026-05-05 14:23 | 47.70849 | 8.43240 | 27429 ft | 440 kts | 172° |
| 2026-05-05 14:23 | 47.67831 | 8.43938 | 27884 ft | 438 kts | 173° |
| 2026-05-05 14:23 | 47.64852 | 8.44493 | 28322 ft | 436 kts | 174° |
| 2026-05-05 14:24 | 47.61838 | 8.44942 | 28761 ft | 434 kts | 175° |
| 2026-05-05 14:24 | 47.58835 | 8.45328 | 29197 ft | 432 kts | 176° |
| 2026-05-05 14:24 | 47.55844 | 8.45696 | 29655 ft | 431 kts | 176° |
| 2026-05-05 14:24 | 47.52824 | 8.46080 | 30073 ft | 429 kts | 175° |
| 2026-05-05 14:25 | 47.49895 | 8.46479 | 30437 ft | 428 kts | 175° |
| 2026-05-05 14:25 | 47.46936 | 8.46903 | 30752 ft | 427 kts | 176° |
| 2026-05-05 14:25 | 47.43973 | 8.47346 | 31055 ft | 428 kts | 176° |
| 2026-05-05 14:25 | 47.41019 | 8.47790 | 31378 ft | 427 kts | 176° |
| 2026-05-05 14:26 | 47.38067 | 8.48233 | 31708 ft | 426 kts | 176° |
| 2026-05-05 14:26 | 47.35117 | 8.48673 | 32039 ft | 426 kts | 176° |
| 2026-05-05 14:26 | 47.32170 | 8.49108 | 32392 ft | 425 kts | 176° |
| 2026-05-05 14:26 | 47.29233 | 8.49536 | 32735 ft | 424 kts | 177° |
| 2026-05-05 14:27 | 47.26299 | 8.49963 | 33085 ft | 423 kts | 177° |
| 2026-05-05 14:27 | 47.23379 | 8.50390 | 33450 ft | 422 kts | 178° |
| 2026-05-05 14:27 | 47.20463 | 8.50815 | 33816 ft | 420 kts | 178° |
| 2026-05-05 14:27 | 47.17554 | 8.51238 | 34128 ft | 420 kts | 178° |
| 2026-05-05 14:28 | 47.14652 | 8.51661 | 34417 ft | 419 kts | 178° |
| 2026-05-05 14:28 | 47.11751 | 8.52083 | 34680 ft | 419 kts | 178° |
| 2026-05-05 14:28 | 47.08841 | 8.52506 | 34829 ft | 420 kts | 178° |
| 2026-05-05 14:28 | 47.05915 | 8.52929 | 34853 ft | 423 kts | 178° |
| 2026-05-05 14:29 | 47.00045 | 8.53770 | 34868 ft | 424 kts | 178° |
| 2026-05-05 14:29 | 46.94182 | 8.54619 | 34889 ft | 424 kts | 178° |
| 2026-05-05 14:30 | 46.88310 | 8.55466 | 34900 ft | 424 kts | 178° |
| 2026-05-05 14:30 | 46.82455 | 8.56304 | 34895 ft | 421 kts | 179° |
| 2026-05-05 14:31 | 46.76622 | 8.57137 | 34895 ft | 422 kts | 179° |
| 2026-05-05 14:31 | 46.70850 | 8.57964 | 34921 ft | 420 kts | 179° |
| 2026-05-05 14:32 | 46.65047 | 8.58798 | 34941 ft | 419 kts | 179° |
| 2026-05-05 14:32 | 46.59242 | 8.59624 | 34953 ft | 419 kts | 180° |
| 2026-05-05 14:33 | 46.53445 | 8.60448 | 34960 ft | 419 kts | 180° |
| 2026-05-05 14:33 | 46.47652 | 8.61267 | 34966 ft | 418 kts | 180° |
| 2026-05-05 14:34 | 46.41866 | 8.62086 | 34967 ft | 419 kts | 180° |
| 2026-05-05 14:34 | 46.36081 | 8.62910 | 34995 ft | 418 kts | 180° |
| 2026-05-05 14:35 | 46.30282 | 8.63726 | 35009 ft | 418 kts | 180° |
| 2026-05-05 14:35 | 46.24495 | 8.64530 | 35010 ft | 418 kts | 180° |
| 2026-05-05 14:36 | 46.18704 | 8.65344 | 35006 ft | 417 kts | 180° |
| 2026-05-05 14:36 | 46.12926 | 8.66267 | 35013 ft | 421 kts | 174° |
| 2026-05-05 14:37 | 46.07388 | 8.69392 | 35006 ft | 439 kts | 155° |
| 2026-05-05 14:37 | 46.02275 | 8.74275 | 34968 ft | 442 kts | 154° |
| 2026-05-05 14:38 | 45.97147 | 8.79175 | 34988 ft | 443 kts | 154° |
| 2026-05-05 14:38 | 45.92003 | 8.84068 | 34993 ft | 444 kts | 154° |
| 2026-05-05 14:39 | 45.86888 | 8.88915 | 34990 ft | 443 kts | 154° |
| 2026-05-05 14:39 | 45.81741 | 8.93785 | 34989 ft | 443 kts | 154° |
| 2026-05-05 14:40 | 45.76586 | 8.98657 | 34985 ft | 444 kts | 154° |
| 2026-05-05 14:40 | 45.71429 | 9.03510 | 34980 ft | 444 kts | 154° |
| 2026-05-05 14:41 | 45.66267 | 9.08362 | 34958 ft | 444 kts | 153° |
| 2026-05-05 14:41 | 45.61099 | 9.13209 | 34969 ft | 444 kts | 153° |
| 2026-05-05 14:42 | 45.55918 | 9.18042 | 34979 ft | 445 kts | 153° |
| 2026-05-05 14:42 | 45.50740 | 9.22869 | 34986 ft | 445 kts | 153° |
| 2026-05-05 14:43 | 45.45559 | 9.27695 | 34990 ft | 445 kts | 153° |
| 2026-05-05 14:43 | 45.40379 | 9.32521 | 34993 ft | 445 kts | 153° |
| 2026-05-05 14:44 | 45.35189 | 9.37341 | 34960 ft | 446 kts | 153° |
| 2026-05-05 14:44 | 45.30018 | 9.42118 | 35010 ft | 447 kts | 153° |
| 2026-05-05 14:45 | 45.24809 | 9.46926 | 34986 ft | 447 kts | 153° |
| 2026-05-05 14:45 | 45.19592 | 9.51737 | 34958 ft | 447 kts | 153° |
| 2026-05-05 14:46 | 45.14369 | 9.56534 | 34957 ft | 447 kts | 153° |
| 2026-05-05 14:46 | 45.09143 | 9.61314 | 34962 ft | 447 kts | 153° |
| 2026-05-05 14:47 | 45.03916 | 9.66098 | 34938 ft | 448 kts | 153° |
| 2026-05-05 14:47 | 44.98674 | 9.70891 | 34952 ft | 449 kts | 153° |
| 2026-05-05 14:48 | 44.93423 | 9.75671 | 34940 ft | 450 kts | 153° |
| 2026-05-05 14:48 | 44.88164 | 9.80454 | 34948 ft | 450 kts | 153° |
| 2026-05-05 14:49 | 44.82896 | 9.85240 | 34952 ft | 451 kts | 153° |
| 2026-05-05 14:49 | 44.77622 | 9.90015 | 34956 ft | 451 kts | 154° |
| 2026-05-05 14:50 | 44.72330 | 9.94785 | 34937 ft | 452 kts | 154° |
| 2026-05-05 14:50 | 44.67023 | 9.99561 | 34942 ft | 454 kts | 154° |
| 2026-05-05 14:51 | 44.61706 | 10.04345 | 34957 ft | 455 kts | 154° |
| 2026-05-05 14:51 | 44.56366 | 10.09134 | 34961 ft | 455 kts | 154° |
| 2026-05-05 14:52 | 44.51019 | 10.13917 | 34969 ft | 457 kts | 155° |
| 2026-05-05 14:52 | 44.45428 | 10.17843 | 34978 ft | 445 kts | 167° |
| 2026-05-05 14:53 | 44.39628 | 10.20915 | 34964 ft | 446 kts | 166° |
| 2026-05-05 14:53 | 44.33814 | 10.23985 | 34978 ft | 447 kts | 166° |
| 2026-05-05 14:54 | 44.28025 | 10.27039 | 34981 ft | 448 kts | 166° |
| 2026-05-05 14:54 | 44.22198 | 10.30111 | 34994 ft | 448 kts | 166° |
| 2026-05-05 14:55 | 44.16361 | 10.33183 | 35015 ft | 448 kts | 166° |
| 2026-05-05 14:55 | 44.10531 | 10.36249 | 34994 ft | 448 kts | 167° |
| 2026-05-05 14:56 | 44.04681 | 10.39313 | 35001 ft | 449 kts | 167° |
| 2026-05-05 14:56 | 43.98825 | 10.42374 | 35001 ft | 450 kts | 167° |
| 2026-05-05 14:57 | 43.92962 | 10.45423 | 34992 ft | 451 kts | 168° |
| 2026-05-05 14:57 | 43.87083 | 10.48471 | 34985 ft | 451 kts | 168° |
| 2026-05-05 14:58 | 43.81205 | 10.51521 | 34982 ft | 451 kts | 168° |
| 2026-05-05 14:58 | 43.75290 | 10.54286 | 34988 ft | 442 kts | 176° |
| 2026-05-05 14:59 | 43.69269 | 10.55708 | 34973 ft | 438 kts | 179° |
| 2026-05-05 14:59 | 43.63248 | 10.57078 | 34979 ft | 439 kts | 179° |
| 2026-05-05 15:00 | 43.58243 | 10.58227 | 34955 ft | 440 kts | 179° |
| 2026-05-05 15:00 | 43.51177 | 10.59867 | 34956 ft | 441 kts | 179° |
| 2026-05-05 15:01 | 43.45115 | 10.61271 | 34962 ft | 442 kts | 179° |
| 2026-05-05 15:01 | 43.39046 | 10.62658 | 34969 ft | 443 kts | 179° |
| 2026-05-05 15:02 | 43.32958 | 10.64048 | 34950 ft | 443 kts | 179° |
| 2026-05-05 15:02 | 43.27003 | 10.64154 | 34961 ft | 423 kts | 197° |
| 2026-05-05 15:03 | 43.21449 | 10.61997 | 34968 ft | 413 kts | 206° |
| 2026-05-05 15:03 | 43.16019 | 10.59439 | 34975 ft | 413 kts | 206° |
| 2026-05-05 15:04 | 43.10577 | 10.56899 | 34971 ft | 413 kts | 206° |
| 2026-05-05 15:04 | 43.05130 | 10.54378 | 34980 ft | 413 kts | 206° |
| 2026-05-05 15:05 | 42.96968 | 10.50608 | 34974 ft | 412 kts | 206° |
| 2026-05-05 15:05 | 42.94246 | 10.49353 | 34808 ft | 415 kts | 206° |
| 2026-05-05 15:06 | 42.91507 | 10.48084 | 34030 ft | 417 kts | 206° |
| 2026-05-05 15:06 | 42.88750 | 10.46804 | 33110 ft | 419 kts | 205° |
| 2026-05-05 15:06 | 42.85978 | 10.45519 | 32141 ft | 422 kts | 205° |
| 2026-05-05 15:06 | 42.83183 | 10.44224 | 31150 ft | 426 kts | 205° |
| 2026-05-05 15:07 | 42.80363 | 10.42920 | 30145 ft | 431 kts | 204° |
| 2026-05-05 15:07 | 42.77494 | 10.41650 | 29036 ft | 437 kts | 199° |
| 2026-05-05 15:07 | 42.74505 | 10.40998 | 28513 ft | 435 kts | 189° |
| 2026-05-05 15:07 | 42.71477 | 10.41118 | 27851 ft | 438 kts | 178° |
| 2026-05-05 15:08 | 42.68500 | 10.42080 | 27187 ft | 443 kts | 166° |
| 2026-05-05 15:08 | 42.65638 | 10.43629 | 26530 ft | 441 kts | 163° |
| 2026-05-05 15:08 | 42.62806 | 10.45191 | 25910 ft | 437 kts | 163° |
| 2026-05-05 15:08 | 42.60003 | 10.46728 | 25315 ft | 433 kts | 163° |
| 2026-05-05 15:09 | 42.57220 | 10.48249 | 24721 ft | 428 kts | 163° |
| 2026-05-05 15:09 | 42.54474 | 10.49745 | 24149 ft | 424 kts | 163° |
| 2026-05-05 15:09 | 42.51785 | 10.51208 | 23567 ft | 420 kts | 162° |
| 2026-05-05 15:09 | 42.49058 | 10.52685 | 22364 ft | 427 kts | 162° |
| 2026-05-05 15:10 | 42.46255 | 10.54200 | 21036 ft | 438 kts | 162° |
| 2026-05-05 15:10 | 42.43403 | 10.55741 | 19961 ft | 444 kts | 161° |
| 2026-05-05 15:10 | 42.40529 | 10.57301 | 19323 ft | 445 kts | 161° |
| 2026-05-05 15:10 | 42.37655 | 10.58861 | 19089 ft | 446 kts | 161° |
| 2026-05-05 15:11 | 42.34779 | 10.60419 | 18963 ft | 445 kts | 161° |
| 2026-05-05 15:11 | 42.31901 | 10.61978 | 18991 ft | 446 kts | 161° |
| 2026-05-05 15:11 | 42.29017 | 10.63541 | 18988 ft | 446 kts | 161° |
| 2026-05-05 15:11 | 42.26137 | 10.65097 | 18989 ft | 446 kts | 161° |
| 2026-05-05 15:12 | 42.23255 | 10.66651 | 18991 ft | 446 kts | 161° |
| 2026-05-05 15:12 | 42.20380 | 10.68199 | 18988 ft | 446 kts | 161° |
| 2026-05-05 15:12 | 42.17498 | 10.69750 | 18986 ft | 446 kts | 161° |
| 2026-05-05 15:12 | 42.14616 | 10.71299 | 18991 ft | 446 kts | 161° |
| 2026-05-05 15:13 | 42.11733 | 10.72844 | 18999 ft | 446 kts | 161° |
| 2026-05-05 15:13 | 42.09822 | 10.73866 | 18987 ft | 446 kts | 161° |
| 2026-05-05 15:13 | 42.06946 | 10.75403 | 18987 ft | 445 kts | 161° |
| 2026-05-05 15:13 | 42.04058 | 10.76946 | 18994 ft | 445 kts | 161° |
| 2026-05-05 15:14 | 42.01186 | 10.78482 | 18991 ft | 445 kts | 161° |
| 2026-05-05 15:14 | 41.97369 | 10.80527 | 18991 ft | 445 kts | 161° |
| 2026-05-05 15:14 | 41.94493 | 10.82065 | 18986 ft | 445 kts | 161° |
| 2026-05-05 15:14 | 41.91617 | 10.83599 | 18992 ft | 445 kts | 161° |
| 2026-05-05 15:15 | 41.89672 | 10.84636 | 18988 ft | 445 kts | 161° |
| 2026-05-05 15:15 | 41.86791 | 10.86172 | 18984 ft | 445 kts | 161° |
| 2026-05-05 15:15 | 41.83910 | 10.87708 | 18994 ft | 445 kts | 161° |
| 2026-05-05 15:15 | 41.81037 | 10.89237 | 19000 ft | 445 kts | 161° |
| 2026-05-05 15:16 | 41.78162 | 10.90764 | 18998 ft | 445 kts | 161° |
| 2026-05-05 15:16 | 41.75322 | 10.92269 | 18994 ft | 445 kts | 161° |
| 2026-05-05 15:16 | 41.72443 | 10.93791 | 18998 ft | 445 kts | 161° |
| 2026-05-05 15:16 | 41.69569 | 10.95310 | 18998 ft | 445 kts | 161° |
| 2026-05-05 15:17 | 41.66692 | 10.96829 | 18996 ft | 445 kts | 161° |
| 2026-05-05 15:17 | 41.63817 | 10.98346 | 19002 ft | 444 kts | 161° |
| 2026-05-05 15:17 | 41.60939 | 10.99865 | 19002 ft | 444 kts | 161° |
| 2026-05-05 15:17 | 41.58066 | 11.01381 | 18999 ft | 444 kts | 161° |
| 2026-05-05 15:18 | 41.55157 | 11.02764 | 19003 ft | 441 kts | 168° |
| 2026-05-05 15:18 | 41.52143 | 11.03316 | 19004 ft | 437 kts | 181° |
| 2026-05-05 15:18 | 41.49137 | 11.02918 | 19008 ft | 433 kts | 194° |
| 2026-05-05 15:18 | 41.46309 | 11.01608 | 19007 ft | 429 kts | 208° |
| 2026-05-05 15:19 | 41.43809 | 10.99469 | 18992 ft | 427 kts | 220° |
| 2026-05-05 15:19 | 41.41749 | 10.96641 | 18987 ft | 426 kts | 232° |
| 2026-05-05 15:19 | 41.39916 | 10.93541 | 18999 ft | 426 kts | 232° |
| 2026-05-05 15:19 | 41.38074 | 10.90454 | 18991 ft | 426 kts | 232° |
| 2026-05-05 15:20 | 41.36221 | 10.87372 | 18994 ft | 426 kts | 232° |
| 2026-05-05 15:20 | 41.34367 | 10.84296 | 18992 ft | 426 kts | 231° |
| 2026-05-05 15:20 | 41.32537 | 10.81261 | 18994 ft | 426 kts | 232° |
| 2026-05-05 15:20 | 41.30681 | 10.78181 | 18995 ft | 426 kts | 231° |
| 2026-05-05 15:21 | 41.28827 | 10.75106 | 18990 ft | 426 kts | 231° |
| 2026-05-05 15:21 | 41.26970 | 10.72029 | 18985 ft | 427 kts | 232° |
| 2026-05-05 15:21 | 41.25116 | 10.68958 | 18985 ft | 426 kts | 232° |
| 2026-05-05 15:21 | 41.23259 | 10.65880 | 18989 ft | 426 kts | 232° |
| 2026-05-05 15:22 | 41.21405 | 10.62811 | 18989 ft | 426 kts | 232° |
| 2026-05-05 15:22 | 41.19547 | 10.59742 | 19001 ft | 426 kts | 231° |
| 2026-05-05 15:22 | 41.17685 | 10.56675 | 19005 ft | 426 kts | 231° |
| 2026-05-05 15:22 | 41.15822 | 10.53610 | 18995 ft | 426 kts | 231° |
| 2026-05-05 15:23 | 41.13963 | 10.50556 | 19004 ft | 426 kts | 231° |
| 2026-05-05 15:23 | 41.12101 | 10.47496 | 18991 ft | 426 kts | 231° |
| 2026-05-05 15:23 | 41.10240 | 10.44432 | 19000 ft | 426 kts | 231° |
| 2026-05-05 15:23 | 41.08382 | 10.41373 | 18988 ft | 426 kts | 231° |
| 2026-05-05 15:24 | 41.06522 | 10.38313 | 18997 ft | 426 kts | 231° |
| 2026-05-05 15:24 | 41.04663 | 10.35265 | 18998 ft | 426 kts | 231° |
| 2026-05-05 15:24 | 41.02797 | 10.32212 | 18996 ft | 426 kts | 231° |
| 2026-05-05 15:24 | 41.00934 | 10.29169 | 18997 ft | 426 kts | 231° |
| 2026-05-05 15:25 | 40.99070 | 10.26123 | 18995 ft | 426 kts | 231° |
| 2026-05-05 15:25 | 40.97205 | 10.23082 | 18992 ft | 426 kts | 231° |
| 2026-05-05 15:25 | 40.95340 | 10.20039 | 19000 ft | 426 kts | 231° |
| 2026-05-05 15:25 | 40.93539 | 10.16935 | 19000 ft | 425 kts | 236° |
| 2026-05-05 15:26 | 40.92110 | 10.13515 | 18999 ft | 425 kts | 245° |
| 2026-05-05 15:26 | 40.91034 | 10.09872 | 18994 ft | 425 kts | 249° |
| 2026-05-05 15:26 | 40.90004 | 10.06267 | 18993 ft | 425 kts | 249° |
| 2026-05-05 15:26 | 40.88952 | 10.02614 | 18995 ft | 425 kts | 248° |
| 2026-05-05 15:27 | 40.87896 | 9.98970 | 18997 ft | 425 kts | 248° |
| 2026-05-05 15:27 | 40.86836 | 9.95333 | 18996 ft | 424 kts | 248° |
| 2026-05-05 15:27 | 40.85775 | 9.91693 | 18994 ft | 424 kts | 248° |
| 2026-05-05 15:27 | 40.84713 | 9.88054 | 18994 ft | 424 kts | 248° |
| 2026-05-05 15:28 | 40.83651 | 9.84422 | 18995 ft | 424 kts | 248° |
| 2026-05-05 15:28 | 40.82590 | 9.80792 | 19007 ft | 424 kts | 248° |
| 2026-05-05 15:28 | 40.81529 | 9.77163 | 19008 ft | 423 kts | 248° |
| 2026-05-05 15:28 | 40.80468 | 9.73545 | 19009 ft | 423 kts | 248° |
| 2026-05-05 15:29 | 40.79402 | 9.69922 | 19008 ft | 423 kts | 248° |
| 2026-05-05 15:29 | 40.78212 | 9.66387 | 19004 ft | 422 kts | 241° |
| 2026-05-05 15:29 | 40.76586 | 9.63177 | 18976 ft | 421 kts | 231° |
| 2026-05-05 15:29 | 40.74556 | 9.60390 | 18997 ft | 423 kts | 221° |
| 2026-05-05 15:30 | 40.72181 | 9.58107 | 18980 ft | 424 kts | 213° |
| 2026-05-05 15:30 | 40.69543 | 9.56356 | 18975 ft | 425 kts | 204° |
| 2026-05-05 15:30 | 40.66779 | 9.54961 | 18988 ft | 425 kts | 203° |
| 2026-05-05 15:30 | 40.64022 | 9.53565 | 18985 ft | 425 kts | 203° |
| 2026-05-05 15:31 | 40.61260 | 9.52155 | 18975 ft | 425 kts | 203° |
| 2026-05-05 15:31 | 40.58504 | 9.50747 | 18976 ft | 425 kts | 203° |
| 2026-05-05 15:31 | 40.55750 | 9.49340 | 18976 ft | 425 kts | 203° |
| 2026-05-05 15:31 | 40.52989 | 9.47932 | 18979 ft | 425 kts | 203° |
| 2026-05-05 15:32 | 40.50269 | 9.46549 | 18964 ft | 425 kts | 203° |
| 2026-05-05 15:32 | 40.47508 | 9.45147 | 18968 ft | 426 kts | 203° |
| 2026-05-05 15:32 | 40.44706 | 9.43729 | 18969 ft | 426 kts | 203° |
| 2026-05-05 15:32 | 40.41980 | 9.42348 | 18967 ft | 427 kts | 203° |
| 2026-05-05 15:33 | 40.39207 | 9.40943 | 18978 ft | 427 kts | 203° |
| 2026-05-05 15:33 | 40.36436 | 9.39539 | 18977 ft | 427 kts | 203° |
| 2026-05-05 15:33 | 40.33666 | 9.38140 | 18977 ft | 427 kts | 203° |
| 2026-05-05 15:33 | 40.30897 | 9.36745 | 18970 ft | 427 kts | 203° |
| 2026-05-05 15:34 | 40.28121 | 9.35351 | 18982 ft | 427 kts | 203° |
| 2026-05-05 15:34 | 40.25345 | 9.33957 | 18987 ft | 427 kts | 203° |
| 2026-05-05 15:34 | 40.22569 | 9.32561 | 18971 ft | 427 kts | 203° |
| 2026-05-05 15:34 | 40.19795 | 9.31167 | 18973 ft | 427 kts | 203° |
| 2026-05-05 15:35 | 40.17024 | 9.29778 | 18993 ft | 427 kts | 203° |
| 2026-05-05 15:35 | 40.14245 | 9.28388 | 18993 ft | 427 kts | 203° |
| 2026-05-05 15:35 | 40.11469 | 9.27001 | 18994 ft | 427 kts | 203° |
| 2026-05-05 15:35 | 40.08695 | 9.25613 | 18966 ft | 427 kts | 203° |
| 2026-05-05 15:36 | 40.05919 | 9.24221 | 18975 ft | 428 kts | 203° |
| 2026-05-05 15:36 | 40.03135 | 9.22824 | 18977 ft | 428 kts | 203° |
| 2026-05-05 15:36 | 40.00356 | 9.21431 | 18977 ft | 428 kts | 203° |
| 2026-05-05 15:36 | 39.97569 | 9.20037 | 18978 ft | 429 kts | 203° |
| 2026-05-05 15:37 | 39.94784 | 9.18648 | 18981 ft | 429 kts | 203° |
| 2026-05-05 15:37 | 39.91997 | 9.17259 | 18982 ft | 429 kts | 203° |
| 2026-05-05 15:37 | 39.89210 | 9.15873 | 18987 ft | 429 kts | 203° |
| 2026-05-05 15:37 | 39.86424 | 9.14497 | 18979 ft | 429 kts | 202° |
| 2026-05-05 15:38 | 39.83546 | 9.13429 | 18978 ft | 431 kts | 197° |
| 2026-05-05 15:38 | 39.80632 | 9.12456 | 18980 ft | 432 kts | 197° |
| 2026-05-05 15:38 | 39.77762 | 9.11494 | 18980 ft | 432 kts | 197° |
| 2026-05-05 15:38 | 39.74818 | 9.10503 | 18982 ft | 432 kts | 197° |
| 2026-05-05 15:39 | 39.71948 | 9.09540 | 18982 ft | 432 kts | 197° |
| 2026-05-05 15:39 | 39.68963 | 9.08753 | 18984 ft | 434 kts | 189° |
| 2026-05-05 15:39 | 39.65925 | 9.08687 | 18969 ft | 439 kts | 178° |
| 2026-05-05 15:39 | 39.62964 | 9.09383 | 18979 ft | 435 kts | 167° |
| 2026-05-05 15:40 | 39.60203 | 9.10786 | 18997 ft | 422 kts | 156° |
| 2026-05-05 15:40 | 39.57691 | 9.12734 | 18995 ft | 420 kts | 151° |
| 2026-05-05 15:40 | 39.55231 | 9.14766 | 18996 ft | 419 kts | 151° |
| 2026-05-05 15:40 | 39.52770 | 9.16787 | 18996 ft | 419 kts | 151° |
| 2026-05-05 15:41 | 39.50307 | 9.18803 | 18993 ft | 419 kts | 151° |
| 2026-05-05 15:41 | 39.47844 | 9.20821 | 18994 ft | 419 kts | 151° |
| 2026-05-05 15:41 | 39.45384 | 9.22838 | 18993 ft | 419 kts | 151° |
| 2026-05-05 15:41 | 39.42923 | 9.24858 | 18987 ft | 418 kts | 151° |
| 2026-05-05 15:42 | 39.40467 | 9.26873 | 18995 ft | 418 kts | 151° |
| 2026-05-05 15:42 | 39.38016 | 9.28882 | 18994 ft | 417 kts | 151° |
| 2026-05-05 15:42 | 39.35567 | 9.30892 | 18994 ft | 417 kts | 151° |
| 2026-05-05 15:42 | 39.33110 | 9.32903 | 18996 ft | 418 kts | 151° |
| 2026-05-05 15:43 | 39.30657 | 9.34905 | 18999 ft | 418 kts | 151° |
| 2026-05-05 15:43 | 39.28199 | 9.36907 | 18995 ft | 418 kts | 151° |
| 2026-05-05 15:43 | 39.25742 | 9.38908 | 18998 ft | 418 kts | 151° |
| 2026-05-05 15:43 | 39.23284 | 9.40913 | 18998 ft | 418 kts | 151° |
| 2026-05-05 15:44 | 39.20830 | 9.42916 | 18997 ft | 418 kts | 151° |
| 2026-05-05 15:44 | 39.18375 | 9.44916 | 18987 ft | 418 kts | 151° |
| 2026-05-05 15:44 | 39.15905 | 9.46778 | 18980 ft | 414 kts | 160° |
| 2026-05-05 15:44 | 39.13160 | 9.47571 | 18981 ft | 402 kts | 183° |
| 2026-05-05 15:45 | 39.10462 | 9.46911 | 18979 ft | 393 kts | 206° |
| 2026-05-05 15:45 | 39.08255 | 9.44935 | 18982 ft | 387 kts | 229° |
| 2026-05-05 15:45 | 39.06897 | 9.41994 | 18978 ft | 385 kts | 252° |
| 2026-05-05 15:45 | 39.06554 | 9.38587 | 18973 ft | 386 kts | 269° |
| 2026-05-05 15:46 | 39.06587 | 9.35129 | 18970 ft | 387 kts | 269° |
| 2026-05-05 15:46 | 39.06622 | 9.31688 | 18983 ft | 377 kts | 269° |
| 2026-05-05 15:46 | 39.06931 | 9.28432 | 18996 ft | 361 kts | 286° |
| 2026-05-05 15:46 | 39.08063 | 9.25626 | 18996 ft | 350 kts | 305° |
| 2026-05-05 15:47 | 39.09684 | 9.23371 | 18996 ft | 336 kts | 311° |
| 2026-05-05 15:47 | 39.10779 | 9.21999 | 18996 ft | 327 kts | 312° |
| 2026-05-05 15:47 | 39.12958 | 9.19441 | 18998 ft | 308 kts | 314° |
| 2026-05-05 15:47 | 39.14536 | 9.17649 | 18869 ft | 299 kts | 314° |
| 2026-05-05 15:48 | 39.16131 | 9.15832 | 18107 ft | 314 kts | 314° |
| 2026-05-05 15:48 | 39.17795 | 9.13921 | 17216 ft | 328 kts | 314° |
| 2026-05-05 15:48 | 39.19531 | 9.11919 | 16310 ft | 341 kts | 314° |
| 2026-05-05 15:48 | 39.21326 | 9.09842 | 15392 ft | 353 kts | 314° |
| 2026-05-05 15:49 | 39.23185 | 9.07688 | 14497 ft | 365 kts | 314° |
| 2026-05-05 15:49 | 39.25114 | 9.05489 | 13547 ft | 376 kts | 318° |
| 2026-05-05 15:49 | 39.27403 | 9.03748 | 12522 ft | 385 kts | 332° |
| 2026-05-05 15:49 | 39.29724 | 9.02170 | 11694 ft | 368 kts | 326° |
| 2026-05-05 15:50 | 39.32032 | 9.00881 | 10951 ft | 360 kts | 345° |
| 2026-05-05 15:50 | 39.34474 | 9.00434 | 10232 ft | 348 kts | 346° |
| 2026-05-05 15:50 | 39.36595 | 8.99287 | 9506 ft | 328 kts | 319° |
| 2026-05-05 15:50 | 39.38082 | 8.97161 | 8718 ft | 315 kts | 303° |
| 2026-05-05 15:51 | 39.39590 | 8.95152 | 7959 ft | 313 kts | 323° |
| 2026-05-05 15:51 | 39.41540 | 8.93924 | 7224 ft | 311 kts | 335° |
| 2026-05-05 15:51 | 39.43544 | 8.92915 | 6502 ft | 307 kts | 336° |
| 2026-05-05 15:51 | 39.45529 | 8.91928 | 5745 ft | 303 kts | 336° |
| 2026-05-05 15:52 | 39.47472 | 8.90953 | 5165 ft | 294 kts | 336° |
| 2026-05-05 15:52 | 39.49302 | 8.90034 | 5002 ft | 270 kts | 336° |
| 2026-05-05 15:52 | 39.50963 | 8.89174 | 4983 ft | 243 kts | 329° |
| 2026-05-05 15:52 | 39.52444 | 8.88194 | 4992 ft | 249 kts | 340° |
| 2026-05-05 15:53 | 39.54202 | 8.88030 | 4997 ft | 260 kts | 11° |
| 2026-05-05 15:53 | 39.55836 | 8.89016 | 4991 ft | 263 kts | 41° |
| 2026-05-05 15:53 | 39.56896 | 8.90901 | 4993 ft | 260 kts | 72° |
| 2026-05-05 15:53 | 39.57119 | 8.93181 | 4999 ft | 255 kts | 98° |
| 2026-05-05 15:54 | 39.56870 | 8.95456 | 4994 ft | 255 kts | 102° |
| 2026-05-05 15:54 | 39.56555 | 8.97711 | 4992 ft | 254 kts | 104° |
| 2026-05-05 15:54 | 39.55958 | 8.99838 | 4993 ft | 251 kts | 119° |
| 2026-05-05 15:54 | 39.55200 | 9.01882 | 4993 ft | 252 kts | 118° |
| 2026-05-05 15:55 | 39.54615 | 9.04018 | 4993 ft | 253 kts | 109° |
| 2026-05-05 15:55 | 39.54185 | 9.06227 | 4990 ft | 255 kts | 99° |
| 2026-05-05 15:55 | 39.54359 | 9.08514 | 4992 ft | 260 kts | 72° |
| 2026-05-05 15:55 | 39.55324 | 9.10487 | 4995 ft | 262 kts | 43° |
| 2026-05-05 15:56 | 39.56885 | 9.11674 | 5002 ft | 262 kts | 14° |
| 2026-05-05 15:56 | 39.58680 | 9.11960 | 5000 ft | 261 kts | 3° |
| 2026-05-05 15:56 | 39.60394 | 9.12652 | 4996 ft | 261 kts | 36° |
| 2026-05-05 15:56 | 39.61483 | 9.14482 | 4999 ft | 259 kts | 72° |
| 2026-05-05 15:57 | 39.61761 | 9.16760 | 5003 ft | 256 kts | 95° |
| 2026-05-05 15:57 | 39.61444 | 9.19001 | 4992 ft | 251 kts | 115° |
| 2026-05-05 15:57 | 39.60582 | 9.20891 | 4999 ft | 245 kts | 136° |
| 2026-05-05 15:57 | 39.59241 | 9.22197 | 4997 ft | 240 kts | 158° |
| 2026-05-05 15:58 | 39.57702 | 9.23026 | 4995 ft | 239 kts | 161° |
| 2026-05-05 15:58 | 39.56155 | 9.23832 | 5000 ft | 239 kts | 161° |
| 2026-05-05 15:58 | 39.54602 | 9.24635 | 5005 ft | 242 kts | 161° |
| 2026-05-05 15:58 | 39.53050 | 9.25439 | 4998 ft | 240 kts | 161° |
| 2026-05-05 15:59 | 39.51495 | 9.26244 | 5006 ft | 240 kts | 161° |
| 2026-05-05 15:59 | 39.49943 | 9.27046 | 5006 ft | 241 kts | 161° |
| 2026-05-05 15:59 | 39.48380 | 9.27851 | 4999 ft | 242 kts | 161° |
| 2026-05-05 15:59 | 39.46819 | 9.28656 | 5001 ft | 241 kts | 161° |
| 2026-05-05 16:00 | 39.45262 | 9.29463 | 5005 ft | 241 kts | 160° |
| 2026-05-05 16:00 | 39.43703 | 9.30271 | 5006 ft | 242 kts | 161° |
| 2026-05-05 16:00 | 39.42144 | 9.31077 | 5004 ft | 242 kts | 161° |
| 2026-05-05 16:00 | 39.40580 | 9.31886 | 5006 ft | 242 kts | 161° |
| 2026-05-05 16:01 | 39.39014 | 9.32696 | 5005 ft | 243 kts | 161° |
| 2026-05-05 16:01 | 39.37444 | 9.33507 | 5004 ft | 243 kts | 161° |
| 2026-05-05 16:01 | 39.35867 | 9.34317 | 5005 ft | 245 kts | 161° |
| 2026-05-05 16:01 | 39.34286 | 9.35128 | 5004 ft | 244 kts | 161° |
| 2026-05-05 16:02 | 39.32716 | 9.35935 | 5007 ft | 243 kts | 161° |
| 2026-05-05 16:02 | 39.31145 | 9.36748 | 5005 ft | 243 kts | 161° |
| 2026-05-05 16:02 | 39.29569 | 9.37561 | 4897 ft | 245 kts | 161° |
| 2026-05-05 16:02 | 39.27990 | 9.38374 | 4639 ft | 244 kts | 161° |
| 2026-05-05 16:03 | 39.26424 | 9.39177 | 4390 ft | 241 kts | 161° |
| 2026-05-05 16:03 | 39.24876 | 9.39970 | 4137 ft | 238 kts | 161° |
| 2026-05-05 16:03 | 39.23374 | 9.40877 | 3890 ft | 238 kts | 153° |
| 2026-05-05 16:03 | 39.21969 | 9.41997 | 3642 ft | 235 kts | 150° |
| 2026-05-05 16:04 | 39.20612 | 9.43107 | 3509 ft | 226 kts | 149° |
| 2026-05-05 16:04 | 39.19325 | 9.44154 | 3503 ft | 214 kts | 149° |
| 2026-05-05 16:04 | 39.18087 | 9.45158 | 3508 ft | 213 kts | 149° |
| 2026-05-05 16:04 | 39.16797 | 9.45990 | 3502 ft | 201 kts | 161° |
| 2026-05-05 16:05 | 39.15489 | 9.46442 | 3496 ft | 192 kts | 172° |
| 2026-05-05 16:05 | 39.14166 | 9.46561 | 3502 ft | 190 kts | 182° |
| 2026-05-05 16:05 | 39.12898 | 9.46365 | 3511 ft | 172 kts | 192° |
| 2026-05-05 16:05 | 39.11828 | 9.45947 | 3499 ft | 151 kts | 201° |
| 2026-05-05 16:06 | 39.10916 | 9.45385 | 3515 ft | 142 kts | 208° |
| 2026-05-05 16:06 | 39.10132 | 9.44721 | 3504 ft | 137 kts | 216° |
| 2026-05-05 16:06 | 39.09458 | 9.43864 | 3457 ft | 137 kts | 231° |
| 2026-05-05 16:06 | 39.09036 | 9.42758 | 3496 ft | 140 kts | 249° |
| 2026-05-05 16:07 | 39.08835 | 9.41524 | 3542 ft | 142 kts | 259° |
| 2026-05-05 16:07 | 39.08756 | 9.40252 | 3512 ft | 143 kts | 265° |
| 2026-05-05 16:07 | 39.08890 | 9.38973 | 3377 ft | 147 kts | 284° |
| 2026-05-05 16:07 | 39.09351 | 9.37791 | 3180 ft | 149 kts | 301° |
| 2026-05-05 16:08 | 39.10004 | 9.36746 | 2930 ft | 150 kts | 310° |
| 2026-05-05 16:08 | 39.10734 | 9.35788 | 2696 ft | 150 kts | 314° |
| 2026-05-05 16:08 | 39.11232 | 9.35173 | 2531 ft | 150 kts | 315° |
| 2026-05-05 16:08 | 39.12001 | 9.34267 | 2305 ft | 150 kts | 316° |
| 2026-05-05 16:09 | 39.12656 | 9.33243 | 2108 ft | 147 kts | 293° |
| 2026-05-05 16:09 | 39.13032 | 9.32034 | 1989 ft | 145 kts | 289° |
| 2026-05-05 16:09 | 39.13439 | 9.30848 | 1896 ft | 145 kts | 292° |
| 2026-05-05 16:09 | 39.13878 | 9.29675 | 1775 ft | 145 kts | 294° |
| 2026-05-05 16:10 | 39.14331 | 9.28513 | 1668 ft | 145 kts | 294° |
| 2026-05-05 16:10 | 39.14749 | 9.27336 | 1558 ft | 144 kts | 291° |
| 2026-05-05 16:10 | 39.15087 | 9.26128 | 1437 ft | 143 kts | 278° |
| 2026-05-05 16:10 | 39.15087 | 9.24871 | 1335 ft | 140 kts | 257° |
| 2026-05-05 16:11 | 39.14830 | 9.23666 | 1274 ft | 140 kts | 249° |
| 2026-05-05 16:11 | 39.13785 | 9.20186 | 1510 ft | 140 kts | 248° |
| 2026-05-05 16:12 | 39.13608 | 9.18948 | 1654 ft | 143 kts | 266° |
| 2026-05-05 16:12 | 39.14240 | 9.16550 | 1512 ft | 145 kts | 314° |
| 2026-05-05 16:13 | 39.16772 | 9.14496 | 1148 ft | 143 kts | 323° |
| 2026-05-05 16:13 | 39.17587 | 9.13765 | 1302 ft | 144 kts | 326° |
| 2026-05-05 16:13 | 39.18437 | 9.13061 | 1387 ft | 145 kts | 328° |
| 2026-05-05 16:14 | 39.19987 | 9.11409 | 1070 ft | 143 kts | 311° |
| 2026-05-05 16:14 | 39.21480 | 9.09686 | 808 ft | 144 kts | 321° |
| 2026-05-05 16:15 | 39.22973 | 9.07948 | 413 ft | 148 kts | 317° |
| 2026-05-05 16:15 | 39.24482 | 9.06200 | 27 ft | 137 kts | 316° |
| 2026-05-05 16:16 | 39.25301 | 9.05243 | 17 ft | 0 kts | 322° |
| 2026-05-05 16:16 | 39.25306 | 9.05274 | 18 ft | 5 kts | 89° |
| 2026-05-05 16:17 | 39.25361 | 9.05383 | 19 ft | 0 kts | 49° |
| 2026-05-05 16:17 | 39.25361 | 9.05382 | 19 ft | 0 kts | 49° |
| 2026-05-05 16:22 | 39.25405 | 9.05477 | 19 ft | 10 kts | 91° |
| 2026-05-05 16:22 | 39.25351 | 9.05703 | 19 ft | 13 kts | 72° |
| 2026-05-05 16:23 | 39.25422 | 9.05799 | 19 ft | 3 kts | 14° |
| 2026-05-05 16:23 | 39.25437 | 9.05795 | 19 ft | 2 kts | 340° |
| 2026-05-05 16:23 | 39.25453 | 9.05782 | 19 ft | 1 kts | 325° |
| 2026-05-05 16:24 | 39.25457 | 9.05777 | 19 ft | 0 kts | 317° |
| 2026-05-05 16:24 | 39.25458 | 9.05776 | 19 ft | 0 kts | 317° |
| 2026-05-05 16:24 | 39.25467 | 9.05766 | 20 ft | 0 kts | 323° |
| 2026-05-05 16:25 | 39.25469 | 9.05764 | 20 ft | 0 kts | 323° |
| 2026-05-05 16:25 | 39.25470 | 9.05764 | 20 ft | 0 kts | 323° |